createdAt,value
2019-05-10T00:43:30.701Z,12.80
2019-05-10T00:47:38.419Z,12.70
2019-05-10T00:49:42.592Z,12.70
2019-05-10T00:51:46.755Z,12.60
2019-05-10T00:53:50.927Z,12.50
2019-05-10T00:55:55.084Z,12.50
2019-05-10T00:57:59.246Z,12.40
2019-05-10T01:00:03.829Z,12.50
2019-05-10T01:02:08.049Z,12.60
2019-05-10T01:04:12.219Z,12.70
2019-05-10T01:06:16.463Z,12.80
2019-05-10T01:08:22.101Z,12.90
2019-05-10T01:10:26.265Z,12.90
2019-05-10T01:12:30.435Z,13.00
2019-05-10T01:14:34.598Z,13.00
2019-05-10T01:16:38.837Z,13.00
2019-05-10T01:18:43.001Z,13.10
2019-05-10T01:20:47.164Z,13.10
2019-05-10T01:22:51.351Z,13.20
2019-05-10T01:24:55.502Z,13.20
2019-05-10T01:26:59.683Z,13.20
2019-05-10T01:29:03.910Z,13.20
2019-05-10T01:31:08.158Z,13.10
2019-05-10T01:33:12.417Z,13.10
2019-05-10T01:35:16.581Z,13.10
2019-05-10T01:37:20.738Z,13.00
2019-05-10T01:39:24.910Z,13.00
2019-05-10T01:41:29.087Z,13.00
2019-05-10T01:43:33.253Z,13.00
2019-05-10T01:45:37.415Z,13.10
2019-05-10T01:47:41.579Z,13.00
2019-05-10T01:49:45.755Z,13.00
2019-05-10T01:51:49.919Z,13.10
2019-05-10T01:53:54.099Z,13.30
2019-05-10T01:55:58.288Z,13.30
2019-05-10T01:58:02.548Z,13.10
2019-05-10T02:00:08.791Z,12.90
2019-05-10T02:02:12.965Z,12.90
2019-05-10T02:04:17.973Z,13.10
2019-05-10T02:06:22.375Z,13.10
2019-05-10T02:08:26.591Z,13.10
2019-05-10T02:10:30.772Z,13.20
2019-05-10T02:12:34.934Z,13.20
2019-05-10T02:14:39.118Z,13.10
2019-05-10T02:16:43.469Z,13.20
2019-05-10T02:18:47.708Z,13.20
2019-05-10T02:20:51.879Z,13.20
2019-05-10T02:22:56.035Z,13.20
2019-05-10T02:25:00.230Z,13.30
2019-05-10T02:27:04.484Z,13.30
2019-05-10T02:29:08.660Z,13.30
2019-05-10T02:31:12.917Z,13.30
2019-05-10T02:33:17.080Z,13.30
2019-05-10T02:35:21.252Z,13.20
2019-05-10T02:37:25.506Z,13.20
2019-05-10T02:39:29.664Z,13.00
2019-05-10T02:41:34.155Z,13.10
2019-05-10T02:43:38.419Z,13.10
2019-05-10T02:45:42.612Z,13.20
2019-05-10T02:47:46.779Z,13.20
2019-05-10T02:49:51.015Z,13.30
2019-05-10T02:51:55.283Z,13.20
2019-05-10T02:54:00.392Z,13.20
2019-05-10T02:56:04.965Z,13.30
2019-05-10T02:58:09.559Z,13.30
2019-05-10T03:00:15.944Z,13.10
2019-05-10T03:02:20.622Z,12.80
2019-05-10T03:04:26.325Z,12.80
2019-05-10T03:06:35.261Z,12.80
2019-05-10T03:08:50.812Z,12.80
2019-05-10T03:10:58.829Z,12.90
2019-05-10T03:13:04.410Z,13.00
2019-05-10T03:15:10.814Z,13.00
2019-05-10T03:17:16.193Z,12.90
2019-05-10T03:19:21.660Z,12.80
2019-05-10T03:21:28.002Z,12.90
2019-05-10T03:23:32.156Z,12.90
2019-05-10T03:25:36.332Z,12.70
2019-05-10T03:27:40.767Z,12.70
2019-05-10T03:29:45.271Z,12.70
2019-05-10T03:31:49.653Z,12.80
2019-05-10T03:33:57.132Z,12.40
2019-05-10T03:35:59.693Z,12.40
2019-05-10T03:38:03.846Z,12.60
2019-05-10T03:40:09.033Z,12.50
2019-05-10T03:42:13.314Z,12.40
2019-05-10T03:44:17.456Z,12.40
2019-05-10T03:46:21.633Z,12.60
2019-05-10T03:48:25.821Z,12.60
2019-05-10T03:50:30.014Z,12.50
2019-05-10T03:52:35.414Z,12.50
2019-05-10T03:54:39.582Z,12.60
2019-05-10T03:56:43.745Z,12.60
2019-05-10T03:58:48.071Z,12.60
2019-05-10T04:00:52.218Z,12.70
2019-05-10T04:02:56.408Z,12.60
2019-05-10T04:05:00.613Z,12.80
2019-05-10T04:07:04.791Z,12.80
2019-05-10T04:09:09.038Z,12.80
2019-05-10T04:11:13.204Z,12.90
2019-05-10T04:13:17.375Z,13.00
2019-05-10T04:15:21.515Z,12.70
2019-05-10T04:17:25.702Z,12.80
2019-05-10T04:19:29.868Z,12.70
2019-05-10T04:21:34.015Z,12.80
2019-05-10T04:23:38.192Z,12.90
2019-05-10T04:25:42.354Z,13.00
2019-05-10T04:27:46.535Z,12.80
2019-05-10T04:29:50.721Z,12.80
2019-05-10T04:31:54.885Z,13.00
2019-05-10T04:33:59.087Z,13.00
2019-05-10T04:36:03.287Z,12.90
2019-05-10T04:38:07.455Z,12.90
2019-05-10T04:40:11.863Z,12.90
2019-05-10T04:42:16.026Z,12.80
2019-05-10T04:44:20.185Z,12.90
2019-05-10T04:46:24.453Z,12.90
2019-05-10T04:48:28.597Z,12.80
2019-05-10T04:50:32.770Z,12.90
2019-05-10T04:52:36.930Z,12.70
2019-05-10T04:54:41.178Z,12.80
2019-05-10T04:56:45.354Z,12.90
2019-05-10T04:58:49.502Z,12.90
2019-05-10T05:00:53.659Z,12.70
2019-05-10T05:02:57.821Z,12.90
2019-05-10T05:05:02.107Z,13.00
2019-05-10T05:07:06.271Z,13.10
2019-05-10T05:09:10.537Z,13.00
2019-05-10T05:11:14.781Z,13.10
2019-05-10T05:13:18.945Z,13.10
2019-05-10T05:15:23.113Z,13.30
2019-05-10T05:17:27.639Z,13.30
2019-05-10T05:19:31.798Z,13.40
2019-05-10T05:21:35.944Z,13.50
2019-05-10T05:23:40.137Z,13.60
2019-05-10T05:25:44.305Z,13.50
2019-05-10T05:27:48.547Z,13.60
2019-05-10T05:29:52.745Z,13.60
2019-05-10T05:32:00.954Z,13.50
2019-05-10T05:34:04.774Z,13.50
2019-05-10T05:36:08.675Z,13.50
2019-05-10T05:38:12.838Z,13.50
2019-05-10T05:40:17.519Z,13.40
2019-05-10T05:42:22.399Z,13.40
2019-05-10T05:44:27.874Z,13.50
2019-05-10T05:46:32.279Z,13.50
2019-05-10T05:48:40.432Z,13.40
2019-05-10T05:50:42.325Z,13.40
2019-05-10T05:52:46.496Z,13.30
2019-05-10T05:54:52.959Z,13.50
2019-05-10T05:56:56.716Z,13.50
2019-05-10T05:59:00.880Z,13.60
2019-05-10T06:01:05.113Z,13.50
2019-05-10T06:03:09.353Z,13.70
2019-05-10T06:05:24.532Z,13.80
2019-05-10T06:07:19.741Z,13.80
2019-05-10T06:09:24.068Z,13.70
2019-05-10T06:11:29.886Z,13.70
2019-05-10T06:13:34.247Z,13.90
2019-05-10T06:15:38.459Z,13.60
2019-05-10T06:17:42.685Z,13.70
2019-05-10T06:19:46.887Z,13.70
2019-05-10T06:21:51.087Z,13.70
2019-05-10T06:23:55.245Z,13.80
2019-05-10T06:28:03.205Z,13.70
2019-05-10T06:30:07.988Z,13.70
2019-05-10T06:32:12.201Z,13.60
2019-05-10T06:34:16.364Z,13.60
2019-05-10T06:36:20.522Z,13.80
2019-05-10T06:38:24.695Z,14.00
2019-05-10T06:40:34.792Z,14.10
2019-05-10T06:42:36.166Z,14.10
2019-05-10T06:44:40.509Z,13.90
2019-05-10T06:46:44.672Z,13.70
2019-05-10T06:48:48.847Z,13.70
2019-05-10T06:50:53.003Z,13.80
2019-05-10T06:53:00.782Z,13.90
2019-05-10T06:55:04.045Z,14.00
2019-05-10T06:57:11.161Z,14.00
2019-05-10T06:59:19.425Z,14.10
2019-05-10T07:01:20.190Z,14.00
2019-05-10T07:03:24.546Z,13.80
2019-05-10T07:05:28.803Z,14.00
2019-05-10T07:07:43.750Z,13.90
2019-05-10T07:10:01.433Z,13.70
2019-05-10T07:11:44.845Z,13.50
2019-05-10T07:13:52.843Z,13.50
2019-05-10T07:15:54.921Z,13.30
2019-05-10T07:17:59.168Z,13.40
2019-05-10T07:20:03.645Z,13.50
2019-05-10T07:22:07.831Z,13.50
2019-05-10T07:24:11.967Z,13.40
2019-05-10T07:26:17.363Z,13.50
2019-05-10T07:28:22.324Z,13.70
2019-05-10T07:30:32.873Z,13.40
2019-05-10T07:32:37.091Z,13.20
2019-05-10T07:34:41.334Z,13.40
2019-05-10T07:36:45.588Z,13.50
2019-05-10T07:38:49.760Z,13.30
2019-05-10T07:40:53.931Z,13.30
2019-05-10T07:42:58.117Z,13.30
2019-05-10T07:45:02.550Z,13.20
2019-05-10T07:47:06.790Z,12.90
2019-05-10T07:49:10.966Z,12.70
2019-05-10T07:51:15.121Z,12.90
2019-05-10T07:53:23.006Z,13.10
2019-05-10T07:55:28.667Z,13.30
2019-05-10T07:57:31.280Z,13.30
2019-05-10T07:59:48.663Z,13.20
2019-05-10T08:01:41.431Z,13.50
2019-05-10T08:03:51.810Z,13.20
2019-05-10T08:05:57.019Z,13.40
2019-05-10T08:07:58.818Z,13.50
2019-05-10T08:10:04.859Z,13.10
2019-05-10T08:12:12.614Z,13.00
2019-05-10T08:14:15.221Z,12.90
2019-05-10T08:16:22.704Z,12.90
2019-05-10T08:18:25.587Z,12.90
2019-05-10T08:20:45.354Z,12.90
2019-05-10T08:22:41.409Z,13.00
2019-05-10T08:24:44.590Z,13.30
2019-05-10T08:26:47.554Z,13.10
2019-05-10T08:28:52.554Z,12.80
2019-05-10T08:30:58.817Z,12.90
2019-05-10T08:33:09.495Z,13.00
2019-05-10T08:35:16.460Z,13.00
2019-05-10T08:37:19.486Z,12.80
2019-05-10T08:39:22.358Z,12.80
2019-05-10T08:41:26.664Z,13.00
2019-05-10T08:43:38.941Z,13.00
2019-05-10T08:45:38.763Z,13.10
2019-05-10T08:47:42.857Z,13.40
2019-05-10T08:50:06.461Z,13.10
2019-05-10T08:51:53.190Z,13.10
2019-05-10T08:53:58.310Z,13.10
2019-05-10T08:56:07.728Z,13.10
2019-05-10T08:58:08.729Z,13.20
2019-05-10T09:00:13.329Z,13.10
2019-05-10T09:02:23.062Z,13.10
2019-05-10T09:04:23.418Z,13.10
2019-05-10T09:06:27.591Z,13.20
2019-05-10T09:08:34.576Z,13.30
2019-05-10T09:10:37.756Z,13.40
2019-05-10T09:12:51.068Z,13.50
2019-05-10T09:14:48.816Z,13.50
2019-05-10T09:17:00.902Z,13.60
2019-05-10T09:18:59.273Z,13.70
2019-05-10T09:21:09.260Z,13.80
2019-05-10T09:23:15.355Z,13.80
2019-05-10T09:25:15.345Z,13.60
2019-05-10T09:27:19.620Z,13.70
2019-05-10T09:29:27.325Z,13.60
2019-05-10T09:31:29.740Z,13.70
2019-05-10T09:33:33.920Z,13.80
2019-05-10T09:35:38.798Z,13.60
2019-05-10T09:37:47.659Z,13.90
2019-05-10T09:39:55.467Z,14.00
2019-05-10T09:41:55.829Z,14.10
2019-05-10T09:44:02.844Z,14.00
2019-05-10T09:46:06.390Z,14.10
2019-05-10T09:48:12.119Z,14.00
2019-05-10T09:50:16.816Z,14.00
2019-05-10T09:52:21.039Z,14.00
2019-05-10T09:54:31.757Z,13.70
2019-05-10T09:56:32.908Z,13.60
2019-05-10T09:58:38.691Z,13.60
2019-05-10T10:00:42.900Z,13.60
2019-05-10T10:02:55.898Z,13.40
2019-05-10T10:04:53.134Z,13.30
2019-05-10T10:06:57.942Z,13.30
2019-05-10T10:09:02.982Z,13.40
2019-05-10T10:11:14.980Z,13.50
2019-05-10T10:13:14.009Z,13.60
2019-05-10T10:15:25.286Z,13.80
2019-05-10T10:17:24.369Z,13.80
2019-05-10T10:19:28.553Z,13.80
2019-05-10T10:21:35.522Z,13.80
2019-05-10T10:23:38.613Z,13.70
2019-05-10T10:25:42.797Z,13.90
2019-05-10T10:27:48.018Z,14.10
2019-05-10T10:29:52.506Z,14.40
2019-05-10T10:31:58.997Z,14.70
2019-05-10T10:34:03.300Z,15.10
2019-05-10T10:36:10.477Z,15.40
2019-05-10T10:38:13.541Z,15.20
2019-05-10T10:40:18.390Z,15.20
2019-05-10T10:42:22.621Z,15.30
2019-05-10T10:44:27.150Z,15.60
2019-05-10T10:46:34.415Z,15.80
2019-05-10T10:48:37.451Z,16.30
2019-05-10T10:50:49.839Z,16.70
2019-05-10T10:52:47.587Z,16.90
2019-05-10T10:54:51.764Z,16.60
2019-05-10T10:56:59.282Z,16.70
2019-05-10T10:59:01.819Z,16.50
2019-05-10T11:01:10.892Z,16.50
2019-05-10T11:03:11.879Z,16.60
2019-05-10T11:05:16.161Z,16.50
2019-05-10T11:07:20.311Z,16.50
2019-05-10T11:09:24.891Z,16.30
2019-05-10T11:11:37.867Z,16.30
2019-05-10T11:13:43.996Z,16.50
2019-05-10T11:15:41.996Z,16.60
2019-05-10T11:17:46.465Z,16.60
2019-05-10T11:19:50.651Z,16.80
2019-05-10T11:21:54.806Z,16.80
2019-05-10T11:24:01.264Z,16.70
2019-05-10T11:26:04.893Z,16.90
2019-05-10T11:28:09.887Z,17.00
2019-05-10T11:30:14.929Z,17.00
2019-05-10T11:32:21.157Z,17.40
2019-05-10T11:34:29.390Z,17.60
2019-05-10T11:36:31.282Z,18.00
2019-05-10T11:38:35.617Z,18.20
2019-05-10T11:40:41.965Z,18.10
2019-05-10T11:42:47.456Z,18.00
2019-05-10T12:24:33.977Z,17.70
2019-05-10T14:09:53.861Z,18.70
2019-05-10T14:11:58.096Z,20.00
2019-05-10T14:14:02.319Z,20.50
2019-05-10T14:16:06.486Z,20.60
2019-05-10T14:18:10.659Z,20.30
2019-05-10T14:20:30.602Z,20.30
